createdAt,value
2018-11-14T00:01:27.687Z,6.33
2018-11-14T00:03:55.529Z,6.00
2018-11-14T00:06:23.520Z,6.33
2018-11-14T00:08:51.429Z,6.30
2018-11-14T00:11:19.358Z,5.67
2018-11-14T00:13:47.240Z,6.43
2018-11-14T00:16:15.276Z,6.37
2018-11-14T00:18:43.384Z,5.47
2018-11-14T00:21:11.501Z,5.80
2018-11-14T00:23:39.536Z,5.60
2018-11-14T00:26:07.383Z,5.33
2018-11-14T00:28:35.468Z,6.07
2018-11-14T00:31:03.272Z,5.93
2018-11-14T00:33:31.149Z,6.07
2018-11-14T00:35:59.334Z,5.87
2018-11-14T00:38:27.174Z,6.07
2018-11-14T00:40:55.031Z,6.33
2018-11-14T00:43:22.892Z,5.60
2018-11-14T00:45:50.723Z,5.57
2018-11-14T00:48:18.831Z,6.23
2018-11-14T00:50:46.680Z,5.60
2018-11-14T00:53:14.566Z,5.67
2018-11-14T00:55:43.048Z,5.80
2018-11-14T00:58:10.937Z,6.03
2018-11-14T01:00:38.871Z,6.50
2018-11-14T01:03:06.756Z,6.13
2018-11-14T01:05:34.686Z,6.90
2018-11-14T01:08:02.543Z,7.27
2018-11-14T01:10:30.483Z,5.97
2018-11-14T01:12:58.659Z,7.23
2018-11-14T01:15:26.579Z,7.10
2018-11-14T01:17:54.489Z,7.03
2018-11-14T01:20:22.883Z,7.30
2018-11-14T01:22:50.840Z,7.90
2018-11-14T01:25:19.029Z,7.63
2018-11-14T01:27:47.080Z,7.37
2018-11-14T01:30:16.705Z,7.93
2018-11-14T01:32:45.470Z,8.40
2018-11-14T01:35:13.749Z,8.57
2018-11-14T01:37:42.032Z,8.57
2018-11-14T01:40:11.027Z,8.37
2018-11-14T01:42:38.950Z,8.33
2018-11-14T01:45:07.734Z,8.23
2018-11-14T01:47:35.655Z,7.57
2018-11-14T01:50:04.050Z,7.80
2018-11-14T01:52:31.885Z,7.30
2018-11-14T01:55:00.204Z,7.40
2018-11-14T01:57:28.143Z,6.83
2018-11-14T01:59:56.007Z,7.70
2018-11-14T02:02:23.876Z,7.30
2018-11-14T02:04:51.952Z,7.03
2018-11-14T02:07:20.250Z,7.03
2018-11-14T02:09:48.096Z,8.60
2018-11-14T02:12:15.950Z,8.47
2018-11-14T02:14:43.794Z,8.43
2018-11-14T02:17:11.629Z,7.77
2018-11-14T02:19:42.593Z,8.70
2018-11-14T02:22:10.432Z,8.27
2018-11-14T02:24:38.574Z,9.30
2018-11-14T02:27:06.414Z,9.40
2018-11-14T02:29:34.259Z,9.47
2018-11-14T02:32:02.147Z,9.70
2018-11-14T02:34:33.409Z,9.50
2018-11-14T02:37:01.451Z,9.50
2018-11-14T02:39:29.398Z,9.37
2018-11-14T02:41:57.335Z,8.07
2018-11-14T02:44:25.310Z,9.27
2018-11-14T02:46:53.149Z,9.13
2018-11-14T02:49:21.042Z,8.77
2018-11-14T02:51:48.898Z,9.07
2018-11-14T02:54:16.777Z,9.43
2018-11-14T02:56:45.224Z,9.00
2018-11-14T02:59:13.194Z,9.73
2018-11-14T03:01:41.047Z,9.23
2018-11-14T03:04:08.907Z,10.23
2018-11-14T03:06:36.799Z,9.77
2018-11-14T03:09:05.862Z,8.90
2018-11-14T03:11:33.739Z,9.47
2018-11-14T03:14:01.597Z,9.17
2018-11-14T03:16:29.513Z,8.03
2018-11-14T03:18:57.344Z,7.10
2018-11-14T03:21:28.455Z,8.30
2018-11-14T03:23:56.280Z,8.60
2018-11-14T03:26:24.480Z,7.00
2018-11-14T03:28:52.310Z,6.87
2018-11-14T03:31:20.166Z,7.80
2018-11-14T03:33:48.046Z,8.47
2018-11-14T03:36:16.045Z,8.13
2018-11-14T03:38:46.245Z,7.53
2018-11-14T03:41:14.092Z,7.83
2018-11-14T03:43:41.971Z,8.00
2018-11-14T03:46:09.818Z,8.33
2018-11-14T03:48:37.668Z,7.93
2018-11-14T03:51:05.530Z,7.97
2018-11-14T03:53:33.600Z,8.10
2018-11-14T03:56:01.572Z,9.17
2018-11-14T03:58:29.638Z,8.97
2018-11-14T04:00:57.579Z,8.63
2018-11-14T04:03:25.598Z,9.27
2018-11-14T04:05:53.560Z,9.60
2018-11-14T04:08:21.515Z,8.90
2018-11-14T04:10:49.478Z,10.07
2018-11-14T04:13:17.428Z,9.57
2018-11-14T04:15:45.706Z,9.23
2018-11-14T04:18:13.713Z,9.37
2018-11-14T04:20:41.664Z,9.57
2018-11-14T04:23:09.717Z,10.37
2018-11-14T04:25:37.799Z,9.27
2018-11-14T04:28:05.864Z,10.53
2018-11-14T04:30:33.812Z,10.87
2018-11-14T04:33:01.900Z,9.33
2018-11-14T04:35:29.888Z,10.97
2018-11-14T04:37:57.831Z,10.33
2018-11-14T04:40:25.796Z,11.00
2018-11-14T04:42:53.751Z,10.67
2018-11-14T04:45:23.110Z,10.57
2018-11-14T04:47:51.101Z,11.77
2018-11-14T04:50:20.890Z,11.17
2018-11-14T04:52:49.456Z,12.20
2018-11-14T04:55:18.526Z,10.87
2018-11-14T04:57:46.848Z,11.20
2018-11-14T05:00:15.864Z,11.13
2018-11-14T05:02:44.715Z,10.50
2018-11-14T05:05:15.358Z,9.40
2018-11-14T05:07:43.345Z,9.70
2018-11-14T05:10:13.528Z,10.27
2018-11-14T05:12:41.538Z,8.90
2018-11-14T05:15:11.101Z,9.33
2018-11-14T05:17:39.373Z,9.63
2018-11-14T05:20:08.691Z,10.10
2018-11-14T05:22:36.871Z,10.10
2018-11-14T05:25:05.298Z,9.80
2018-11-14T05:27:33.501Z,9.93
2018-11-14T05:30:01.489Z,10.20
2018-11-14T05:32:29.460Z,10.67
2018-11-14T05:34:57.497Z,10.37
2018-11-14T05:37:25.495Z,10.50
2018-11-14T05:39:53.612Z,10.73
2018-11-14T05:42:21.415Z,9.93
2018-11-14T05:44:49.409Z,9.97
2018-11-14T05:47:17.413Z,11.17
2018-11-14T05:49:45.457Z,10.00
2018-11-14T05:52:13.561Z,11.17
2018-11-14T05:54:41.552Z,11.17
2018-11-14T05:57:09.569Z,11.13
2018-11-14T05:59:37.646Z,11.97
2018-11-14T06:02:05.685Z,11.30
2018-11-14T06:04:33.637Z,10.73
2018-11-14T06:07:01.673Z,11.20
2018-11-14T06:09:29.798Z,12.70
2018-11-14T06:11:57.853Z,13.77
2018-11-14T06:14:25.918Z,13.43
2018-11-14T06:16:54.168Z,14.13
2018-11-14T06:19:22.519Z,12.83
2018-11-14T06:21:50.481Z,12.40
2018-11-14T06:24:18.495Z,12.57
2018-11-14T06:26:46.503Z,12.40
2018-11-14T06:29:14.468Z,13.60
2018-11-14T06:31:42.448Z,14.50
2018-11-14T06:34:10.410Z,13.07
2018-11-14T06:36:38.452Z,15.03
2018-11-14T06:39:09.252Z,13.67
2018-11-14T06:41:37.706Z,10.77
2018-11-14T06:44:05.904Z,13.43
2018-11-14T06:46:34.174Z,13.40
2018-11-14T06:49:02.133Z,14.00
2018-11-14T06:51:30.082Z,12.67
2018-11-14T06:53:58.506Z,14.87
2018-11-14T06:56:26.571Z,13.20
2018-11-14T06:58:54.776Z,15.03
2018-11-14T07:01:22.719Z,14.43
2018-11-14T07:03:50.709Z,13.80
2018-11-14T07:06:18.739Z,14.13
2018-11-14T07:08:46.623Z,15.40
2018-11-14T07:11:14.598Z,15.80
2018-11-14T07:13:42.608Z,17.10
2018-11-14T07:16:10.645Z,16.20
2018-11-14T07:18:38.709Z,15.93
2018-11-14T07:21:06.676Z,16.80
2018-11-14T07:23:34.764Z,15.63
2018-11-14T07:26:02.708Z,15.60
2018-11-14T07:28:31.619Z,17.07
2018-11-14T07:30:59.603Z,15.97
2018-11-14T07:33:27.663Z,16.00
2018-11-14T07:35:55.602Z,17.33
2018-11-14T07:38:39.477Z,17.33
2018-11-14T07:41:09.371Z,16.73
2018-11-14T07:43:38.148Z,17.80
2018-11-14T07:46:06.662Z,16.53
2018-11-14T07:48:34.922Z,16.63
2018-11-14T07:51:03.214Z,15.77
2018-11-14T07:53:31.395Z,15.87
2018-11-14T07:55:59.357Z,15.97
2018-11-14T07:58:27.526Z,15.37
2018-11-14T08:00:55.908Z,14.23
2018-11-14T08:03:23.973Z,14.23
2018-11-14T08:05:52.156Z,15.00
2018-11-14T08:08:20.826Z,15.10
2018-11-14T08:10:48.903Z,15.27
2018-11-14T08:13:20.264Z,14.00
2018-11-14T08:15:49.233Z,13.70
2018-11-14T08:18:17.320Z,13.67
2018-11-14T08:20:45.308Z,13.50
2018-11-14T08:23:13.273Z,14.47
2018-11-14T08:25:41.359Z,12.70
2018-11-14T08:28:09.330Z,14.47
2018-11-14T08:30:37.411Z,14.90
2018-11-14T08:33:05.767Z,14.57
2018-11-14T08:35:33.735Z,13.97
2018-11-14T08:38:01.705Z,14.03
2018-11-14T08:40:33.399Z,12.60
2018-11-14T08:43:01.557Z,14.20
2018-11-14T08:45:29.607Z,13.50
2018-11-14T08:47:57.629Z,14.53
2018-11-14T08:50:25.668Z,13.90
2018-11-14T08:52:53.571Z,13.50
2018-11-14T08:55:25.167Z,12.37
2018-11-14T08:57:53.183Z,11.60
2018-11-14T09:00:23.268Z,13.80
2018-11-14T09:02:51.641Z,13.03
2018-11-14T09:05:19.700Z,11.70
2018-11-14T09:07:48.164Z,11.67
2018-11-14T09:10:21.377Z,10.67
2018-11-14T09:12:49.639Z,11.53
2018-11-14T09:15:18.954Z,11.57
2018-11-14T09:17:46.932Z,12.20
2018-11-14T09:20:16.316Z,11.60
2018-11-14T09:22:44.711Z,13.03
2018-11-14T09:25:17.607Z,12.07
2018-11-14T09:27:45.767Z,12.23
2018-11-14T09:30:16.198Z,11.60
2018-11-14T09:32:44.193Z,12.30
2018-11-14T09:35:13.371Z,12.23
2018-11-14T09:37:41.357Z,12.97
2018-11-14T09:40:10.430Z,12.50
2018-11-14T09:42:38.693Z,11.33
2018-11-14T09:45:08.524Z,12.03
2018-11-14T09:47:36.924Z,11.70
2018-11-14T09:50:06.727Z,11.80
2018-11-14T09:52:34.727Z,14.20
2018-11-14T09:55:02.707Z,12.57
2018-11-14T09:57:30.698Z,12.03
2018-11-14T09:59:58.656Z,12.30
2018-11-14T10:02:26.718Z,12.03
2018-11-14T10:04:54.683Z,13.90
2018-11-14T10:07:22.657Z,13.33
2018-11-14T10:09:50.655Z,11.50
2018-11-14T10:12:18.698Z,11.10
2018-11-14T10:14:46.595Z,12.83
2018-11-14T10:17:14.700Z,11.93
2018-11-14T10:19:42.683Z,11.63
2018-11-14T10:22:10.642Z,11.97
2018-11-14T10:24:38.691Z,12.13
2018-11-14T10:27:07.097Z,11.10
2018-11-14T10:29:35.065Z,11.53
2018-11-14T10:32:03.006Z,12.30
2018-11-14T10:34:31.009Z,11.17
2018-11-14T10:36:58.996Z,11.63
2018-11-14T10:39:26.952Z,11.87
2018-11-14T10:41:55.004Z,13.67
2018-11-14T10:44:23.644Z,11.60
2018-11-14T10:46:51.854Z,12.27
2018-11-14T10:49:20.034Z,13.23
2018-11-14T10:51:48.187Z,13.90
2018-11-14T10:54:16.384Z,12.87
2018-11-14T10:56:44.843Z,13.73
2018-11-14T10:59:13.019Z,14.43
2018-11-14T11:01:46.764Z,12.40
2018-11-14T11:04:20.417Z,12.80
2018-11-14T11:06:54.169Z,13.37
2018-11-14T11:09:27.796Z,12.93
2018-11-14T11:12:01.367Z,12.63
2018-11-14T11:14:30.634Z,13.70
2018-11-14T11:17:04.189Z,13.37
2018-11-14T11:19:32.587Z,10.90
2018-11-14T11:22:00.865Z,11.67
2018-11-14T11:24:29.198Z,12.30
2018-11-14T11:26:57.257Z,11.17
2018-11-14T11:29:25.214Z,11.87
2018-11-14T11:31:53.339Z,11.83
2018-11-14T11:34:21.297Z,12.57
2018-11-14T11:36:49.294Z,11.97
2018-11-14T11:39:18.446Z,11.43
2018-11-14T11:41:46.856Z,11.63
2018-11-14T11:44:14.953Z,11.00
2018-11-14T11:46:45.974Z,12.13
2018-11-14T11:49:14.022Z,13.53
2018-11-14T11:51:42.097Z,14.50
2018-11-14T11:54:10.943Z,12.73
2018-11-14T11:56:39.046Z,11.83
2018-11-14T11:59:07.731Z,11.03
2018-11-14T12:01:35.830Z,13.33
2018-11-14T12:04:04.192Z,11.67
2018-11-14T12:06:32.281Z,12.03
2018-11-14T12:09:00.237Z,12.13
2018-11-14T12:11:28.222Z,12.10
2018-11-14T12:13:56.316Z,12.47
2018-11-14T12:16:24.353Z,11.97
2018-11-14T12:18:52.378Z,12.33
2018-11-14T12:21:20.295Z,13.77
2018-11-14T12:23:48.314Z,14.40
2018-11-14T12:26:16.267Z,13.53
2018-11-14T12:28:44.294Z,13.97
2018-11-14T12:31:12.493Z,12.23
2018-11-14T12:33:40.223Z,11.63
2018-11-14T12:36:08.624Z,13.77
2018-11-14T12:38:36.690Z,12.77
2018-11-14T12:41:04.575Z,11.97
2018-11-14T12:43:32.581Z,12.80
2018-11-14T12:46:00.514Z,12.90
2018-11-14T12:48:28.477Z,12.50
2018-11-14T12:50:56.531Z,13.17
2018-11-14T12:53:24.496Z,12.93
2018-11-14T12:55:52.785Z,13.13
2018-11-14T12:58:20.740Z,13.27
2018-11-14T13:00:48.835Z,13.93
2018-11-14T13:03:16.904Z,14.00
2018-11-14T13:05:44.870Z,12.07
2018-11-14T13:08:13.372Z,13.17
2018-11-14T13:10:41.420Z,12.17
2018-11-14T13:13:09.664Z,12.67
2018-11-14T13:15:37.608Z,12.13
2018-11-14T13:18:05.750Z,14.50
2018-11-14T13:20:33.803Z,12.30
2018-11-14T13:23:01.792Z,12.00
2018-11-14T13:25:29.808Z,11.93
2018-11-14T13:27:58.091Z,11.43
2018-11-14T13:30:29.391Z,12.40
2018-11-14T13:32:57.380Z,11.30
2018-11-14T13:35:25.732Z,11.57
2018-11-14T13:37:53.705Z,11.33
2018-11-14T13:40:21.668Z,11.57
2018-11-14T13:42:49.759Z,10.50
2018-11-14T13:45:22.036Z,10.03
2018-11-14T13:47:49.993Z,10.07
2018-11-14T13:50:20.294Z,10.10
2018-11-14T13:52:48.135Z,11.63
2018-11-14T13:55:17.370Z,11.30
2018-11-14T13:57:46.582Z,11.30
2018-11-14T14:00:16.476Z,10.10
2018-11-14T14:02:44.648Z,10.50
2018-11-14T14:05:14.080Z,10.53
2018-11-14T14:07:42.144Z,11.87
2018-11-14T14:10:11.390Z,10.83
2018-11-14T14:12:40.028Z,11.07
2018-11-14T14:15:10.710Z,11.40
2018-11-14T14:17:38.945Z,10.60
2018-11-14T14:20:07.979Z,10.80
2018-11-14T14:22:36.014Z,11.37
2018-11-14T14:25:04.812Z,10.57
2018-11-14T14:27:32.806Z,9.70
2018-11-14T14:30:00.776Z,9.30
2018-11-14T14:32:28.808Z,9.67
2018-11-14T14:34:56.776Z,10.50
2018-11-14T14:37:24.850Z,9.50
2018-11-14T14:39:52.808Z,10.03
2018-11-14T14:42:20.988Z,10.03
2018-11-14T14:44:49.030Z,10.43
2018-11-14T14:47:17.174Z,11.73
2018-11-14T14:49:45.164Z,10.93
2018-11-14T14:52:13.119Z,10.87
2018-11-14T14:54:41.483Z,12.83
2018-11-14T14:57:09.535Z,11.03
2018-11-14T14:59:37.535Z,11.40
2018-11-14T15:02:05.994Z,12.43
2018-11-14T15:04:34.037Z,12.60
2018-11-14T15:07:02.048Z,12.70
2018-11-14T15:09:30.131Z,12.93
2018-11-14T15:11:58.105Z,11.87
2018-11-14T15:14:26.164Z,12.53
2018-11-14T15:16:54.194Z,12.10
2018-11-14T15:19:22.269Z,12.80
2018-11-14T15:21:50.367Z,13.67
2018-11-14T15:24:18.505Z,12.40
2018-11-14T15:26:46.558Z,13.00
2018-11-14T15:29:14.632Z,13.77
2018-11-14T15:31:42.684Z,13.67
2018-11-14T15:34:10.725Z,13.50
2018-11-14T15:36:38.662Z,14.70
2018-11-14T15:39:08.600Z,15.50
2018-11-14T15:41:36.672Z,14.70
2018-11-14T15:44:04.683Z,15.47
2018-11-14T15:46:32.716Z,15.83
2018-11-14T15:49:01.709Z,15.83
2018-11-14T15:51:29.706Z,15.87
2018-11-14T15:53:57.648Z,15.40
2018-11-14T15:56:25.635Z,16.47
2018-11-14T15:58:53.574Z,16.73
2018-11-14T16:01:21.571Z,15.80
2018-11-14T16:03:49.543Z,16.90
2018-11-14T16:06:17.504Z,17.20
2018-11-14T16:08:45.495Z,15.23
2018-11-14T16:11:13.462Z,14.67
2018-11-14T16:13:41.823Z,15.23
2018-11-14T16:16:09.873Z,15.40
2018-11-14T16:18:37.864Z,16.73
2018-11-14T16:21:05.839Z,16.27
2018-11-14T16:23:33.815Z,15.33
2018-11-14T16:26:01.823Z,15.70
2018-11-14T16:28:29.782Z,17.30
2018-11-14T16:30:57.750Z,16.27
2018-11-14T16:33:30.076Z,15.13
2018-11-14T16:35:58.075Z,15.90
2018-11-14T16:38:26.163Z,15.63
2018-11-14T16:40:54.133Z,16.37
2018-11-14T16:43:22.081Z,15.50
2018-11-14T16:45:50.036Z,16.33
2018-11-14T16:48:21.362Z,17.43
2018-11-14T16:50:49.630Z,21.20
2018-11-14T16:53:17.611Z,18.03
2018-11-14T16:55:45.638Z,15.90
2018-11-14T16:58:13.549Z,16.00
2018-11-14T17:00:41.504Z,18.73
2018-11-14T17:03:09.517Z,19.00
2018-11-14T17:05:37.540Z,19.10
2018-11-14T17:08:05.955Z,17.00
2018-11-14T17:10:33.898Z,17.40
2018-11-14T17:13:02.597Z,18.67
2018-11-14T17:15:30.670Z,17.73
2018-11-14T17:17:58.671Z,17.83
2018-11-14T17:20:26.737Z,19.67
2018-11-14T17:22:55.384Z,20.20
2018-11-14T17:25:23.444Z,17.03
2018-11-14T17:27:51.549Z,17.87
2018-11-14T17:30:22.135Z,18.00
2018-11-14T17:32:50.380Z,17.67
2018-11-14T17:42:19.287Z,16.67
2018-11-14T17:44:47.255Z,16.40
2018-11-14T17:47:15.411Z,17.37
2018-11-14T17:49:43.419Z,17.87
2018-11-14T17:52:11.526Z,16.67
2018-11-14T17:54:40.040Z,17.77
2018-11-14T17:57:08.278Z,19.03
2018-11-14T17:59:36.436Z,21.13
2018-11-14T18:02:04.796Z,26.73
2018-11-14T18:04:32.779Z,19.67
2018-11-14T18:07:00.773Z,16.30
2018-11-14T18:09:29.051Z,16.97
2018-11-14T18:11:57.104Z,17.50
2018-11-14T18:14:25.074Z,19.03
2018-11-14T18:16:53.377Z,18.17
2018-11-14T18:19:21.396Z,18.70
2018-11-14T18:21:49.464Z,19.37
2018-11-14T18:24:17.689Z,17.43
2018-11-14T18:26:45.835Z,17.67
2018-11-14T18:29:14.006Z,17.67
2018-11-14T18:31:42.077Z,17.70
2018-11-14T18:34:10.128Z,17.50
2018-11-14T18:36:38.239Z,18.40
2018-11-14T18:39:09.268Z,18.50
2018-11-14T18:41:37.327Z,18.20
2018-11-14T18:44:05.502Z,16.77
2018-11-14T18:46:33.517Z,17.60
2018-11-14T18:49:01.547Z,18.63
2018-11-14T18:51:29.620Z,19.77
2018-11-14T18:53:57.652Z,18.60
2018-11-14T18:56:25.836Z,21.17
2018-11-14T18:58:53.997Z,19.33
2018-11-14T19:01:22.241Z,19.93
2018-11-14T19:03:50.298Z,18.07
2018-11-14T19:06:18.573Z,19.50
2018-11-14T19:08:46.880Z,19.97
2018-11-14T19:11:15.029Z,19.10
2018-11-14T19:13:43.076Z,18.77
2018-11-14T19:16:11.164Z,19.50
2018-11-14T19:18:39.315Z,20.33
2018-11-14T19:21:07.242Z,20.30
2018-11-14T19:23:35.376Z,18.77
2018-11-14T19:26:03.381Z,19.83
2018-11-14T19:28:31.721Z,19.00
2018-11-14T19:30:59.740Z,18.83
2018-11-14T19:33:27.690Z,17.43
2018-11-14T19:35:59.248Z,18.93
2018-11-14T19:38:27.597Z,17.53
2018-11-14T19:40:56.053Z,17.63
2018-11-14T19:43:23.989Z,17.30
2018-11-14T19:45:51.983Z,18.27
2018-11-14T19:48:20.261Z,18.03
2018-11-14T19:52:17.615Z,18.67
2018-11-14T19:54:45.600Z,17.13
2018-11-14T19:57:13.626Z,18.03
2018-11-14T19:59:41.599Z,16.57
2018-11-14T20:02:09.672Z,17.30
2018-11-14T20:04:37.627Z,17.53
2018-11-14T20:07:05.707Z,17.20
2018-11-14T20:09:33.747Z,18.47
2018-11-14T20:12:01.894Z,18.70
2018-11-14T20:14:30.007Z,17.57
2018-11-14T20:16:58.066Z,18.57
2018-11-14T20:19:26.064Z,18.33
2018-11-14T20:21:54.035Z,18.30
2018-11-14T20:24:22.030Z,18.57
2018-11-14T20:26:49.997Z,18.20
2018-11-14T20:29:17.975Z,16.63
2018-11-14T20:31:46.199Z,19.30
2018-11-14T20:34:14.132Z,18.63
2018-11-14T20:36:42.606Z,18.80
2018-11-14T20:39:12.056Z,18.27
2018-11-14T20:41:43.373Z,18.37
2018-11-14T20:44:11.316Z,18.17
2018-11-14T20:46:40.327Z,18.00
2018-11-14T20:49:08.422Z,18.37
2018-11-14T20:51:36.390Z,17.80
2018-11-14T20:54:04.372Z,19.00
2018-11-14T20:56:32.463Z,18.63
2018-11-14T20:59:00.508Z,17.67
2018-11-14T21:01:28.475Z,19.43
2018-11-14T21:03:56.540Z,17.53
2018-11-14T21:06:29.202Z,19.10
2018-11-14T21:08:57.636Z,17.50
2018-11-14T21:11:25.628Z,17.67
2018-11-14T21:13:53.630Z,17.50
2018-11-14T21:16:21.644Z,17.83
2018-11-14T21:18:49.709Z,16.53
2018-11-14T21:21:17.669Z,16.90
2018-11-14T21:23:45.668Z,15.57
2018-11-14T21:26:13.629Z,16.53
2018-11-14T21:28:41.646Z,15.57
2018-11-14T21:31:09.635Z,17.70
2018-11-14T21:33:37.644Z,17.60
2018-11-14T21:36:05.613Z,16.37
2018-11-14T21:38:33.588Z,16.80
2018-11-14T21:41:01.646Z,17.03
2018-11-14T21:43:29.643Z,16.30
2018-11-14T21:45:57.614Z,16.87
2018-11-14T21:48:25.643Z,15.20
2018-11-14T21:50:53.620Z,16.93
2018-11-14T21:53:25.180Z,17.03
2018-11-14T21:55:55.279Z,19.10
2018-11-14T21:58:23.372Z,17.80
2018-11-14T22:00:51.643Z,15.63
2018-11-14T22:03:19.607Z,15.90
2018-11-14T22:05:47.578Z,15.97
2018-11-14T22:08:15.648Z,16.77
2018-11-14T22:10:43.589Z,17.73
2018-11-14T22:13:11.539Z,17.43
2018-11-14T22:15:39.573Z,16.17
2018-11-14T22:18:07.592Z,16.47
2018-11-14T22:20:35.538Z,15.60
2018-11-14T22:23:03.580Z,15.37
2018-11-14T22:25:31.527Z,18.83
2018-11-14T22:27:59.556Z,18.07
2018-11-14T22:30:28.693Z,16.00
2018-11-14T22:32:56.707Z,16.57
2018-11-14T22:35:26.013Z,16.27
2018-11-14T22:37:54.070Z,16.60
2018-11-14T22:40:23.456Z,15.30
2018-11-14T22:42:51.394Z,15.37
2018-11-14T22:45:20.737Z,14.77
2018-11-14T22:47:48.912Z,15.30
2018-11-14T22:50:18.411Z,14.83
2018-11-14T22:52:46.890Z,14.20
2018-11-14T22:55:15.892Z,13.90
2018-11-14T22:57:44.675Z,14.50
2018-11-14T23:00:23.350Z,13.93
2018-11-14T23:02:52.593Z,13.63
2018-11-14T23:05:20.560Z,13.40
2018-11-14T23:07:49.771Z,13.87
2018-11-14T23:10:18.452Z,13.40
2018-11-14T23:12:46.932Z,15.73
2018-11-14T23:15:14.882Z,15.27
2018-11-14T23:17:42.838Z,14.10
2018-11-14T23:20:12.481Z,15.17
2018-11-14T23:22:41.260Z,15.17
2018-11-14T23:25:09.862Z,15.37
2018-11-14T23:27:38.358Z,15.30
2018-11-14T23:30:07.615Z,15.23
2018-11-14T23:32:35.958Z,14.90
2018-11-14T23:35:09.310Z,15.47
2018-11-14T23:37:37.275Z,14.63
2018-11-14T23:40:05.868Z,14.33
2018-11-14T23:42:33.838Z,14.43
2018-11-14T23:45:01.930Z,14.33
2018-11-14T23:47:30.083Z,12.93
2018-11-14T23:49:58.079Z,13.03
2018-11-14T23:52:26.073Z,13.80
2018-11-14T23:54:54.193Z,13.27
2018-11-14T23:57:22.151Z,13.27
2018-11-14T23:59:50.142Z,12.23
